sensor_id;sensor_type;location;lat;lon;timestamp;temperature;humidity
13198;DHT22;6664;52.514;13.440;2022-09-23T00:01:22;6.40;87.10
13198;DHT22;6664;52.514;13.440;2022-09-23T00:03:49;6.40;87.40
13198;DHT22;6664;52.514;13.440;2022-09-23T00:06:20;6.50;87.40
13198;DHT22;6664;52.514;13.440;2022-09-23T00:08:53;6.50;87.20
13198;DHT22;6664;52.514;13.440;2022-09-23T00:11:22;6.50;87.00
13198;DHT22;6664;52.514;13.440;2022-09-23T00:13:54;6.60;87.00
13198;DHT22;6664;52.514;13.440;2022-09-23T00:16:26;6.50;86.70
13198;DHT22;6664;52.514;13.440;2022-09-23T00:18:58;6.50;86.80
13198;DHT22;6664;52.514;13.440;2022-09-23T00:21:26;6.50;87.00
13198;DHT22;6664;52.514;13.440;2022-09-23T00:23:56;6.50;87.00
13198;DHT22;6664;52.514;13.440;2022-09-23T00:26:23;6.50;86.90
13198;DHT22;6664;52.514;13.440;2022-09-23T00:28:50;6.50;86.90
13198;DHT22;6664;52.514;13.440;2022-09-23T00:31:20;6.50;87.10
13198;DHT22;6664;52.514;13.440;2022-09-23T00:33:55;6.50;87.20
13198;DHT22;6664;52.514;13.440;2022-09-23T00:36:26;6.50;87.20
13198;DHT22;6664;52.514;13.440;2022-09-23T00:38:55;6.60;87.50
13198;DHT22;6664;52.514;13.440;2022-09-23T00:41:26;6.50;87.10
13198;DHT22;6664;52.514;13.440;2022-09-23T00:43:58;6.50;87.30
13198;DHT22;6664;52.514;13.440;2022-09-23T00:46:41;6.50;87.50
13198;DHT22;6664;52.514;13.440;2022-09-23T00:49:14;6.50;87.50
13198;DHT22;6664;52.514;13.440;2022-09-23T00:51:48;6.50;87.60
13198;DHT22;6664;52.514;13.440;2022-09-23T00:54:21;6.50;87.80
13198;DHT22;6664;52.514;13.440;2022-09-23T00:56:50;6.40;87.90
13198;DHT22;6664;52.514;13.440;2022-09-23T00:59:20;6.50;88.10
13198;DHT22;6664;52.514;13.440;2022-09-23T01:01:50;6.40;88.10
13198;DHT22;6664;52.514;13.440;2022-09-23T01:04:22;6.40;88.30
13198;DHT22;6664;52.514;13.440;2022-09-23T01:06:51;6.40;88.60
13198;DHT22;6664;52.514;13.440;2022-09-23T01:09:20;6.30;88.50
13198;DHT22;6664;52.514;13.440;2022-09-23T01:12:14;6.30;88.80
13198;DHT22;6664;52.514;13.440;2022-09-23T01:15:05;6.30;88.80
13198;DHT22;6664;52.514;13.440;2022-09-23T01:20:54;6.30;89.20
13198;DHT22;6664;52.514;13.440;2022-09-23T01:23:38;6.30;89.50
13198;DHT22;6664;52.514;13.440;2022-09-23T01:32:16;6.30;90.00
13198;DHT22;6664;52.514;13.440;2022-09-23T01:34:48;6.20;90.00
13198;DHT22;6664;52.514;13.440;2022-09-23T01:37:42;6.20;90.00
13198;DHT22;6664;52.514;13.440;2022-09-23T01:40:26;6.20;90.10
13198;DHT22;6664;52.514;13.440;2022-09-23T01:43:15;6.20;90.10
13198;DHT22;6664;52.514;13.440;2022-09-23T01:45:47;6.20;90.10
13198;DHT22;6664;52.514;13.440;2022-09-23T01:48:33;6.20;90.20
13198;DHT22;6664;52.514;13.440;2022-09-23T01:51:15;6.20;90.30
13198;DHT22;6664;52.514;13.440;2022-09-23T01:56:23;6.10;90.40
13198;DHT22;6664;52.514;13.440;2022-09-23T01:58:59;6.00;90.40
13198;DHT22;6664;52.514;13.440;2022-09-23T02:02:16;6.00;90.50
13198;DHT22;6664;52.514;13.440;2022-09-23T02:04:52;6.00;90.60
13198;DHT22;6664;52.514;13.440;2022-09-23T02:07:40;6.00;90.70
13198;DHT22;6664;52.514;13.440;2022-09-23T02:10:38;5.90;90.70
13198;DHT22;6664;52.514;13.440;2022-09-23T02:16:13;5.90;90.90
13198;DHT22;6664;52.514;13.440;2022-09-23T02:18:46;5.90;91.00
13198;DHT22;6664;52.514;13.440;2022-09-23T02:21:18;5.80;91.10
13198;DHT22;6664;52.514;13.440;2022-09-23T02:23:59;5.90;91.20
13198;DHT22;6664;52.514;13.440;2022-09-23T02:26:37;5.80;91.20
13198;DHT22;6664;52.514;13.440;2022-09-23T02:31:44;5.80;91.40
13198;DHT22;6664;52.514;13.440;2022-09-23T02:34:26;5.80;91.50
13198;DHT22;6664;52.514;13.440;2022-09-23T02:37:07;5.80;91.60
13198;DHT22;6664;52.514;13.440;2022-09-23T02:39:57;5.80;91.70
13198;DHT22;6664;52.514;13.440;2022-09-23T02:42:49;5.80;91.90
13198;DHT22;6664;52.514;13.440;2022-09-23T02:45:18;5.80;91.90
13198;DHT22;6664;52.514;13.440;2022-09-23T02:47:52;5.80;92.00
13198;DHT22;6664;52.514;13.440;2022-09-23T02:50:22;5.80;92.10
13198;DHT22;6664;52.514;13.440;2022-09-23T02:52:49;5.80;92.10
13198;DHT22;6664;52.514;13.440;2022-09-23T02:55:17;5.80;92.20
13198;DHT22;6664;52.514;13.440;2022-09-23T02:57:44;5.80;92.30
13198;DHT22;6664;52.514;13.440;2022-09-23T03:00:12;5.80;92.30
13198;DHT22;6664;52.514;13.440;2022-09-23T03:02:59;5.80;92.40
13198;DHT22;6664;52.514;13.440;2022-09-23T03:05:36;5.80;92.50
13198;DHT22;6664;52.514;13.440;2022-09-23T03:08:15;5.70;92.50
13198;DHT22;6664;52.514;13.440;2022-09-23T03:10:58;5.80;92.70
13198;DHT22;6664;52.514;13.440;2022-09-23T03:19:24;5.80;93.00
13198;DHT22;6664;52.514;13.440;2022-09-23T03:22:15;5.80;93.10
13198;DHT22;6664;52.514;13.440;2022-09-23T03:24:47;5.70;93.10
13198;DHT22;6664;52.514;13.440;2022-09-23T03:27:23;5.80;93.30
13198;DHT22;6664;52.514;13.440;2022-09-23T03:29:53;5.70;93.30
13198;DHT22;6664;52.514;13.440;2022-09-23T03:32:23;5.70;93.40
13198;DHT22;6664;52.514;13.440;2022-09-23T03:34:54;5.80;93.50
13198;DHT22;6664;52.514;13.440;2022-09-23T03:37:32;5.70;93.50
13198;DHT22;6664;52.514;13.440;2022-09-23T03:40:28;5.70;93.70
13198;DHT22;6664;52.514;13.440;2022-09-23T03:42:56;5.70;93.70
13198;DHT22;6664;52.514;13.440;2022-09-23T03:45:32;5.70;93.80
13198;DHT22;6664;52.514;13.440;2022-09-23T03:48:02;5.70;93.80
13198;DHT22;6664;52.514;13.440;2022-09-23T03:50:29;5.70;93.80
13198;DHT22;6664;52.514;13.440;2022-09-23T03:52:55;5.70;93.90
13198;DHT22;6664;52.514;13.440;2022-09-23T03:55:22;5.70;93.90
13198;DHT22;6664;52.514;13.440;2022-09-23T03:57:49;5.70;94.20
13198;DHT22;6664;52.514;13.440;2022-09-23T04:00:16;5.70;94.10
13198;DHT22;6664;52.514;13.440;2022-09-23T04:02:43;5.70;94.20
13198;DHT22;6664;52.514;13.440;2022-09-23T04:05:11;5.60;94.10
13198;DHT22;6664;52.514;13.440;2022-09-23T04:07:38;5.70;94.30
13198;DHT22;6664;52.514;13.440;2022-09-23T04:10:09;5.60;94.30
13198;DHT22;6664;52.514;13.440;2022-09-23T04:12:38;5.60;94.30
13198;DHT22;6664;52.514;13.440;2022-09-23T04:15:05;5.60;94.20
13198;DHT22;6664;52.514;13.440;2022-09-23T04:17:32;5.50;94.30
13198;DHT22;6664;52.514;13.440;2022-09-23T04:19:59;5.50;94.30
13198;DHT22;6664;52.514;13.440;2022-09-23T04:22:26;5.50;94.40
13198;DHT22;6664;52.514;13.440;2022-09-23T04:24:53;5.50;94.40
13198;DHT22;6664;52.514;13.440;2022-09-23T04:27:20;5.50;94.40
13198;DHT22;6664;52.514;13.440;2022-09-23T04:29:49;5.50;94.50
13198;DHT22;6664;52.514;13.440;2022-09-23T04:32:16;5.40;94.50
13198;DHT22;6664;52.514;13.440;2022-09-23T04:34:45;5.40;94.60
13198;DHT22;6664;52.514;13.440;2022-09-23T04:37:14;5.50;94.60
13198;DHT22;6664;52.514;13.440;2022-09-23T04:39:41;5.50;94.70
13198;DHT22;6664;52.514;13.440;2022-09-23T04:42:08;5.40;94.60
13198;DHT22;6664;52.514;13.440;2022-09-23T04:44:37;5.50;94.80
13198;DHT22;6664;52.514;13.440;2022-09-23T04:47:05;5.40;94.90
13198;DHT22;6664;52.514;13.440;2022-09-23T04:49:32;5.40;95.20
13198;DHT22;6664;52.514;13.440;2022-09-23T04:51:59;5.50;95.00
13198;DHT22;6664;52.514;13.440;2022-09-23T04:54:28;5.40;95.00
13198;DHT22;6664;52.514;13.440;2022-09-23T04:56:55;5.50;95.00
13198;DHT22;6664;52.514;13.440;2022-09-23T04:59:26;5.50;95.10
13198;DHT22;6664;52.514;13.440;2022-09-23T05:01:53;5.50;95.20
13198;DHT22;6664;52.514;13.440;2022-09-23T05:04:21;5.50;95.20
13198;DHT22;6664;52.514;13.440;2022-09-23T05:06:48;5.50;95.20
13198;DHT22;6664;52.514;13.440;2022-09-23T05:09:16;5.50;95.20
13198;DHT22;6664;52.514;13.440;2022-09-23T05:11:44;5.50;95.30
13198;DHT22;6664;52.514;13.440;2022-09-23T05:14:11;5.60;95.40
13198;DHT22;6664;52.514;13.440;2022-09-23T05:16:38;5.60;95.40
13198;DHT22;6664;52.514;13.440;2022-09-23T05:19:05;5.60;95.30
13198;DHT22;6664;52.514;13.440;2022-09-23T05:21:32;5.60;95.30
13198;DHT22;6664;52.514;13.440;2022-09-23T05:24:02;5.60;95.30
13198;DHT22;6664;52.514;13.440;2022-09-23T05:26:30;5.70;95.40
13198;DHT22;6664;52.514;13.440;2022-09-23T05:28:59;5.60;95.30
13198;DHT22;6664;52.514;13.440;2022-09-23T05:31:28;5.70;95.40
13198;DHT22;6664;52.514;13.440;2022-09-23T05:34:00;5.70;95.40
13198;DHT22;6664;52.514;13.440;2022-09-23T05:36:29;5.80;95.40
13198;DHT22;6664;52.514;13.440;2022-09-23T05:39:03;5.80;95.40
13198;DHT22;6664;52.514;13.440;2022-09-23T05:41:30;5.90;95.40
13198;DHT22;6664;52.514;13.440;2022-09-23T05:43:59;5.90;95.30
13198;DHT22;6664;52.514;13.440;2022-09-23T05:46:30;5.90;95.30
13198;DHT22;6664;52.514;13.440;2022-09-23T05:48:58;5.90;95.30
13198;DHT22;6664;52.514;13.440;2022-09-23T05:51:38;6.00;95.20
13198;DHT22;6664;52.514;13.440;2022-09-23T05:54:10;6.00;95.30
13198;DHT22;6664;52.514;13.440;2022-09-23T05:56:39;6.10;95.60
13198;DHT22;6664;52.514;13.440;2022-09-23T05:59:05;6.10;95.20
13198;DHT22;6664;52.514;13.440;2022-09-23T06:01:35;6.20;95.10
13198;DHT22;6664;52.514;13.440;2022-09-23T06:04:05;6.20;95.00
13198;DHT22;6664;52.514;13.440;2022-09-23T06:06:38;6.30;95.00
13198;DHT22;6664;52.514;13.440;2022-09-23T06:09:08;6.30;94.90
13198;DHT22;6664;52.514;13.440;2022-09-23T06:11:35;6.30;94.80
13198;DHT22;6664;52.514;13.440;2022-09-23T06:14:03;6.30;94.70
13198;DHT22;6664;52.514;13.440;2022-09-23T06:16:32;6.30;94.70
13198;DHT22;6664;52.514;13.440;2022-09-23T06:19:00;6.40;94.70
13198;DHT22;6664;52.514;13.440;2022-09-23T06:21:37;6.40;94.70
13198;DHT22;6664;52.514;13.440;2022-09-23T06:24:08;6.50;94.60
13198;DHT22;6664;52.514;13.440;2022-09-23T06:26:36;6.50;94.60
13198;DHT22;6664;52.514;13.440;2022-09-23T06:29:10;6.60;94.50
13198;DHT22;6664;52.514;13.440;2022-09-23T06:31:37;6.60;94.40
13198;DHT22;6664;52.514;13.440;2022-09-23T06:34:14;6.80;94.40
13198;DHT22;6664;52.514;13.440;2022-09-23T06:36:44;6.80;94.20
13198;DHT22;6664;52.514;13.440;2022-09-23T06:39:13;6.80;94.00
13198;DHT22;6664;52.514;13.440;2022-09-23T06:41:40;6.90;93.90
13198;DHT22;6664;52.514;13.440;2022-09-23T06:44:07;7.00;93.80
13198;DHT22;6664;52.514;13.440;2022-09-23T06:46:34;7.00;93.60
13198;DHT22;6664;52.514;13.440;2022-09-23T06:49:05;7.20;93.40
13198;DHT22;6664;52.514;13.440;2022-09-23T06:51:34;7.20;93.00
13198;DHT22;6664;52.514;13.440;2022-09-23T06:54:03;7.40;92.70
13198;DHT22;6664;52.514;13.440;2022-09-23T06:56:30;7.40;92.40
13198;DHT22;6664;52.514;13.440;2022-09-23T06:59:05;7.50;92.10
13198;DHT22;6664;52.514;13.440;2022-09-23T07:01:32;7.60;91.70
13198;DHT22;6664;52.514;13.440;2022-09-23T07:04:01;7.70;91.40
13198;DHT22;6664;52.514;13.440;2022-09-23T07:06:28;7.80;91.20
13198;DHT22;6664;52.514;13.440;2022-09-23T07:08:55;7.90;90.90
13198;DHT22;6664;52.514;13.440;2022-09-23T07:11:22;8.00;90.70
13198;DHT22;6664;52.514;13.440;2022-09-23T07:13:49;8.10;90.50
13198;DHT22;6664;52.514;13.440;2022-09-23T07:16:15;8.20;90.10
13198;DHT22;6664;52.514;13.440;2022-09-23T07:18:42;8.30;89.70
13198;DHT22;6664;52.514;13.440;2022-09-23T07:21:13;8.40;89.00
13198;DHT22;6664;52.514;13.440;2022-09-23T07:23:46;8.50;88.30
13198;DHT22;6664;52.514;13.440;2022-09-23T07:26:17;8.60;87.30
13198;DHT22;6664;52.514;13.440;2022-09-23T07:28:47;8.70;86.50
13198;DHT22;6664;52.514;13.440;2022-09-23T07:31:15;8.80;86.00
13198;DHT22;6664;52.514;13.440;2022-09-23T07:33:58;8.90;85.20
13198;DHT22;6664;52.514;13.440;2022-09-23T07:36:28;9.00;85.00
13198;DHT22;6664;52.514;13.440;2022-09-23T07:39:00;9.10;84.20
13198;DHT22;6664;52.514;13.440;2022-09-23T07:41:30;9.20;83.20
13198;DHT22;6664;52.514;13.440;2022-09-23T07:43:58;9.30;82.70
13198;DHT22;6664;52.514;13.440;2022-09-23T07:46:31;9.50;81.60
13198;DHT22;6664;52.514;13.440;2022-09-23T07:48:59;9.60;81.10
13198;DHT22;6664;52.514;13.440;2022-09-23T07:51:31;9.70;80.60
13198;DHT22;6664;52.514;13.440;2022-09-23T07:54:04;9.70;79.80
13198;DHT22;6664;52.514;13.440;2022-09-23T07:56:35;9.80;79.50
13198;DHT22;6664;52.514;13.440;2022-09-23T07:59:03;9.90;78.60
13198;DHT22;6664;52.514;13.440;2022-09-23T08:01:34;10.00;77.00
13198;DHT22;6664;52.514;13.440;2022-09-23T08:04:05;10.10;76.20
13198;DHT22;6664;52.514;13.440;2022-09-23T08:06:32;10.20;75.90
13198;DHT22;6664;52.514;13.440;2022-09-23T08:09:00;10.30;75.60
13198;DHT22;6664;52.514;13.440;2022-09-23T08:11:27;10.40;75.00
13198;DHT22;6664;52.514;13.440;2022-09-23T08:13:54;10.40;74.60
13198;DHT22;6664;52.514;13.440;2022-09-23T08:16:22;10.50;74.30
13198;DHT22;6664;52.514;13.440;2022-09-23T08:18:49;10.60;74.00
13198;DHT22;6664;52.514;13.440;2022-09-23T08:21:20;10.70;73.60
13198;DHT22;6664;52.514;13.440;2022-09-23T08:23:47;10.80;73.20
13198;DHT22;6664;52.514;13.440;2022-09-23T08:26:14;10.90;72.70
13198;DHT22;6664;52.514;13.440;2022-09-23T08:28:47;10.90;71.90
13198;DHT22;6664;52.514;13.440;2022-09-23T08:31:14;11.00;71.60
13198;DHT22;6664;52.514;13.440;2022-09-23T08:33:51;11.10;71.30
13198;DHT22;6664;52.514;13.440;2022-09-23T08:36:21;11.10;70.60
13198;DHT22;6664;52.514;13.440;2022-09-23T08:38:48;11.20;70.30
13198;DHT22;6664;52.514;13.440;2022-09-23T08:41:19;11.20;69.70
13198;DHT22;6664;52.514;13.440;2022-09-23T08:43:53;11.30;69.50
13198;DHT22;6664;52.514;13.440;2022-09-23T08:46:26;11.40;68.90
13198;DHT22;6664;52.514;13.440;2022-09-23T08:48:54;11.50;68.60
13198;DHT22;6664;52.514;13.440;2022-09-23T08:51:37;11.50;68.30
13198;DHT22;6664;52.514;13.440;2022-09-23T08:54:11;11.60;66.00
13198;DHT22;6664;52.514;13.440;2022-09-23T08:56:41;11.60;65.80
13198;DHT22;6664;52.514;13.440;2022-09-23T08:59:33;11.70;64.80
13198;DHT22;6664;52.514;13.440;2022-09-23T09:02:17;11.70;65.00
13198;DHT22;6664;52.514;13.440;2022-09-23T09:04:53;11.80;64.60
13198;DHT22;6664;52.514;13.440;2022-09-23T09:07:29;11.80;65.10
13198;DHT22;6664;52.514;13.440;2022-09-23T09:10:21;11.80;64.40
13198;DHT22;6664;52.514;13.440;2022-09-23T09:13:01;11.90;64.20
13198;DHT22;6664;52.514;13.440;2022-09-23T09:15:29;11.90;64.40
13198;DHT22;6664;52.514;13.440;2022-09-23T09:18:12;12.00;63.80
13198;DHT22;6664;52.514;13.440;2022-09-23T09:21:10;12.10;63.40
13198;DHT22;6664;52.514;13.440;2022-09-23T09:23:54;12.20;62.50
13198;DHT22;6664;52.514;13.440;2022-09-23T09:26:26;12.20;61.70
13198;DHT22;6664;52.514;13.440;2022-09-23T09:29:19;12.30;60.70
13198;DHT22;6664;52.514;13.440;2022-09-23T09:35:00;12.50;60.00
13198;DHT22;6664;52.514;13.440;2022-09-23T09:37:42;12.60;59.00
13198;DHT22;6664;52.514;13.440;2022-09-23T09:40:13;12.60;58.50
13198;DHT22;6664;52.514;13.440;2022-09-23T09:42:48;12.70;58.30
13198;DHT22;6664;52.514;13.440;2022-09-23T09:48:37;12.80;57.30
13198;DHT22;6664;52.514;13.440;2022-09-23T09:51:19;12.90;56.80
13198;DHT22;6664;52.514;13.440;2022-09-23T09:53:49;13.10;55.70
13198;DHT22;6664;52.514;13.440;2022-09-23T09:56:40;13.20;54.60
13198;DHT22;6664;52.514;13.440;2022-09-23T09:59:16;13.40;54.70
13198;DHT22;6664;52.514;13.440;2022-09-23T10:04:44;13.80;51.60
13198;DHT22;6664;52.514;13.440;2022-09-23T10:07:17;14.00;50.00
13198;DHT22;6664;52.514;13.440;2022-09-23T10:09:51;14.30;48.80
13198;DHT22;6664;52.514;13.440;2022-09-23T10:12:24;14.40;47.70
13198;DHT22;6664;52.514;13.440;2022-09-23T10:14:55;14.60;47.30
13198;DHT22;6664;52.514;13.440;2022-09-23T10:17:33;14.80;45.40
13198;DHT22;6664;52.514;13.440;2022-09-23T10:20:05;15.00;42.60
13198;DHT22;6664;52.514;13.440;2022-09-23T10:22:36;15.20;41.60
13198;DHT22;6664;52.514;13.440;2022-09-23T10:25:18;15.50;41.10
13198;DHT22;6664;52.514;13.440;2022-09-23T10:27:46;15.80;39.50
13198;DHT22;6664;52.514;13.440;2022-09-23T10:30:25;15.90;36.60
13198;DHT22;6664;52.514;13.440;2022-09-23T10:32:55;15.90;35.70
13198;DHT22;6664;52.514;13.440;2022-09-23T10:35:24;16.00;34.90
13198;DHT22;6664;52.514;13.440;2022-09-23T10:38:02;16.00;35.10
13198;DHT22;6664;52.514;13.440;2022-09-23T10:40:36;16.10;35.90
13198;DHT22;6664;52.514;13.440;2022-09-23T10:43:26;16.20;35.80
13198;DHT22;6664;52.514;13.440;2022-09-23T10:52:04;16.80;33.70
13198;DHT22;6664;52.514;13.440;2022-09-23T10:58:03;17.10;30.60
13198;DHT22;6664;52.514;13.440;2022-09-23T11:06:34;18.00;28.60
13198;DHT22;6664;52.514;13.440;2022-09-23T11:11:52;18.30;27.10
13198;DHT22;6664;52.514;13.440;2022-09-23T11:29:24;18.50;24.80
13198;DHT22;6664;52.514;13.440;2022-09-23T11:37:04;18.40;25.70
13198;DHT22;6664;52.514;13.440;2022-09-23T11:39:37;18.60;25.50
13198;DHT22;6664;52.514;13.440;2022-09-23T11:42:13;18.60;25.20
13198;DHT22;6664;52.514;13.440;2022-09-23T11:45:19;18.80;25.10
13198;DHT22;6664;52.514;13.440;2022-09-23T11:47:52;18.90;24.30
13198;DHT22;6664;52.514;13.440;2022-09-23T11:50:33;18.90;23.60
13198;DHT22;6664;52.514;13.440;2022-09-23T11:53:12;19.00;23.70
13198;DHT22;6664;52.514;13.440;2022-09-23T11:55:51;18.90;23.90
13198;DHT22;6664;52.514;13.440;2022-09-23T11:58:34;18.60;25.00
13198;DHT22;6664;52.514;13.440;2022-09-23T12:01:14;18.40;24.90
13198;DHT22;6664;52.514;13.440;2022-09-23T12:04:15;18.50;24.70
13198;DHT22;6664;52.514;13.440;2022-09-23T12:07:10;18.50;24.40
13198;DHT22;6664;52.514;13.440;2022-09-23T12:19:02;18.20;25.90
13198;DHT22;6664;52.514;13.440;2022-09-23T12:27:24;18.40;25.40
13198;DHT22;6664;52.514;13.440;2022-09-23T12:29:57;18.70;25.40
13198;DHT22;6664;52.514;13.440;2022-09-23T12:32:25;19.10;25.20
13198;DHT22;6664;52.514;13.440;2022-09-23T12:34:55;19.70;24.50
13198;DHT22;6664;52.514;13.440;2022-09-23T12:37:24;20.40;22.50
13198;DHT22;6664;52.514;13.440;2022-09-23T12:39:58;22.20;20.50
13198;DHT22;6664;52.514;13.440;2022-09-23T12:42:25;26.90;15.40
13198;DHT22;6664;52.514;13.440;2022-09-23T12:48:26;34.20;3.70
13198;DHT22;6664;52.514;13.440;2022-09-23T12:51:15;36.70;1.00
13198;DHT22;6664;52.514;13.440;2022-09-23T13:01:42;39.80;1.00
13198;DHT22;6664;52.514;13.440;2022-09-23T13:04:29;41.80;1.00
13198;DHT22;6664;52.514;13.440;2022-09-23T13:07:27;42.10;1.00
13198;DHT22;6664;52.514;13.440;2022-09-23T13:10:30;42.20;1.00
13198;DHT22;6664;52.514;13.440;2022-09-23T13:13:00;42.20;1.00
13198;DHT22;6664;52.514;13.440;2022-09-23T13:15:30;42.50;1.00
13198;DHT22;6664;52.514;13.440;2022-09-23T13:20:49;43.30;1.00
13198;DHT22;6664;52.514;13.440;2022-09-23T13:25:54;43.60;1.00
13198;DHT22;6664;52.514;13.440;2022-09-23T13:28:30;45.10;1.00
13198;DHT22;6664;52.514;13.440;2022-09-23T13:31:00;45.40;1.00
13198;DHT22;6664;52.514;13.440;2022-09-23T13:33:45;45.80;1.00
13198;DHT22;6664;52.514;13.440;2022-09-23T13:36:15;40.50;1.00
13198;DHT22;6664;52.514;13.440;2022-09-23T13:38:43;38.60;1.00
13198;DHT22;6664;52.514;13.440;2022-09-23T13:41:22;40.80;1.00
13198;DHT22;6664;52.514;13.440;2022-09-23T13:43:55;40.50;1.00
13198;DHT22;6664;52.514;13.440;2022-09-23T13:46:28;41.50;1.00
13198;DHT22;6664;52.514;13.440;2022-09-23T13:48:56;42.00;1.00
13198;DHT22;6664;52.514;13.440;2022-09-23T13:53:53;43.80;1.00
13198;DHT22;6664;52.514;13.440;2022-09-23T13:56:21;42.70;1.00
13198;DHT22;6664;52.514;13.440;2022-09-23T13:58:49;42.80;1.00
13198;DHT22;6664;52.514;13.440;2022-09-23T14:01:34;43.00;1.00
13198;DHT22;6664;52.514;13.440;2022-09-23T14:04:01;42.70;1.00
13198;DHT22;6664;52.514;13.440;2022-09-23T14:06:30;42.30;1.00
13198;DHT22;6664;52.514;13.440;2022-09-23T14:09:00;40.20;1.00
13198;DHT22;6664;52.514;13.440;2022-09-23T14:11:32;36.20;1.00
13198;DHT22;6664;52.514;13.440;2022-09-23T14:14:02;32.70;1.00
13198;DHT22;6664;52.514;13.440;2022-09-23T14:16:38;30.70;1.00
13198;DHT22;6664;52.514;13.440;2022-09-23T14:19:08;29.10;1.00
13198;DHT22;6664;52.514;13.440;2022-09-23T14:21:42;28.10;1.00
13198;DHT22;6664;52.514;13.440;2022-09-23T14:26:40;27.20;2.20
13198;DHT22;6664;52.514;13.440;2022-09-23T14:29:18;26.50;3.10
13198;DHT22;6664;52.514;13.440;2022-09-23T14:31:52;26.10;4.80
13198;DHT22;6664;52.514;13.440;2022-09-23T14:40:16;25.20;6.90
13198;DHT22;6664;52.514;13.440;2022-09-23T14:43:03;25.40;6.60
13198;DHT22;6664;52.514;13.440;2022-09-23T14:45:35;26.50;5.30
13198;DHT22;6664;52.514;13.440;2022-09-23T14:48:13;26.10;4.70
13198;DHT22;6664;52.514;13.440;2022-09-23T14:50:53;25.00;5.30
13198;DHT22;6664;52.514;13.440;2022-09-23T14:53:28;24.10;7.30
13198;DHT22;6664;52.514;13.440;2022-09-23T14:58:54;22.60;9.40
13198;DHT22;6664;52.514;13.440;2022-09-23T15:07:23;21.00;14.70
13198;DHT22;6664;52.514;13.440;2022-09-23T15:09:40;20.60;15.70
13198;DHT22;6664;52.514;13.440;2022-09-23T15:14:45;19.90;17.40
13198;DHT22;6664;52.514;13.440;2022-09-23T15:17:26;19.50;18.10
13198;DHT22;6664;52.514;13.440;2022-09-23T15:20:06;19.20;19.50
13198;DHT22;6664;52.514;13.440;2022-09-23T15:22:45;19.00;20.10
13198;DHT22;6664;52.514;13.440;2022-09-23T15:27:58;18.50;23.30
13198;DHT22;6664;52.514;13.440;2022-09-23T15:30:25;18.40;23.90
13198;DHT22;6664;52.514;13.440;2022-09-23T15:32:52;18.30;24.40
13198;DHT22;6664;52.514;13.440;2022-09-23T15:35:21;18.10;25.40
13198;DHT22;6664;52.514;13.440;2022-09-23T15:37:55;18.00;25.90
13198;DHT22;6664;52.514;13.440;2022-09-23T15:40:27;17.90;26.70
13198;DHT22;6664;52.514;13.440;2022-09-23T15:43:15;17.80;26.90
13198;DHT22;6664;52.514;13.440;2022-09-23T15:45:51;17.70;28.20
13198;DHT22;6664;52.514;13.440;2022-09-23T15:48:27;17.50;28.00
13198;DHT22;6664;52.514;13.440;2022-09-23T15:50:54;17.40;27.00
13198;DHT22;6664;52.514;13.440;2022-09-23T15:53:24;17.30;27.30
13198;DHT22;6664;52.514;13.440;2022-09-23T15:55:52;17.20;29.10
13198;DHT22;6664;52.514;13.440;2022-09-23T15:58:21;17.10;29.50
13198;DHT22;6664;52.514;13.440;2022-09-23T16:00:49;16.90;29.40
13198;DHT22;6664;52.514;13.440;2022-09-23T16:03:23;16.80;30.00
13198;DHT22;6664;52.514;13.440;2022-09-23T16:05:58;16.60;30.20
13198;DHT22;6664;52.514;13.440;2022-09-23T16:08:27;16.50;30.30
13198;DHT22;6664;52.514;13.440;2022-09-23T16:10:55;16.30;29.70
13198;DHT22;6664;52.514;13.440;2022-09-23T16:13:24;16.20;30.50
13198;DHT22;6664;52.514;13.440;2022-09-23T16:15:51;16.10;31.80
13198;DHT22;6664;52.514;13.440;2022-09-23T16:18:18;16.00;31.30
13198;DHT22;6664;52.514;13.440;2022-09-23T16:20:45;15.80;31.40
13198;DHT22;6664;52.514;13.440;2022-09-23T16:23:17;15.80;32.90
13198;DHT22;6664;52.514;13.440;2022-09-23T16:28:47;15.60;34.30
13198;DHT22;6664;52.514;13.440;2022-09-23T16:31:15;15.50;34.50
13198;DHT22;6664;52.514;13.440;2022-09-23T16:33:45;15.40;34.30
13198;DHT22;6664;52.514;13.440;2022-09-23T16:36:34;15.20;35.20
13198;DHT22;6664;52.514;13.440;2022-09-23T16:39:06;15.20;35.40
13198;DHT22;6664;52.514;13.440;2022-09-23T16:41:35;15.10;35.20
13198;DHT22;6664;52.514;13.440;2022-09-23T16:44:04;15.00;36.20
13198;DHT22;6664;52.514;13.440;2022-09-23T16:46:32;14.90;37.10
13198;DHT22;6664;52.514;13.440;2022-09-23T16:49:00;14.80;34.80
13198;DHT22;6664;52.514;13.440;2022-09-23T16:51:29;14.60;36.10
13198;DHT22;6664;52.514;13.440;2022-09-23T16:53:58;14.50;37.70
13198;DHT22;6664;52.514;13.440;2022-09-23T16:56:27;14.30;38.10
13198;DHT22;6664;52.514;13.440;2022-09-23T16:58:55;14.10;38.80
13198;DHT22;6664;52.514;13.440;2022-09-23T17:01:26;13.90;39.20
13198;DHT22;6664;52.514;13.440;2022-09-23T17:04:13;13.70;39.40
13198;DHT22;6664;52.514;13.440;2022-09-23T17:06:42;13.60;40.40
13198;DHT22;6664;52.514;13.440;2022-09-23T17:09:11;13.40;39.70
13198;DHT22;6664;52.514;13.440;2022-09-23T17:11:39;13.20;40.20
13198;DHT22;6664;52.514;13.440;2022-09-23T17:14:09;13.00;41.40
13198;DHT22;6664;52.514;13.440;2022-09-23T17:16:36;12.90;41.40
13198;DHT22;6664;52.514;13.440;2022-09-23T17:19:07;12.70;42.20
13198;DHT22;6664;52.514;13.440;2022-09-23T17:21:37;12.60;43.60
13198;DHT22;6664;52.514;13.440;2022-09-23T17:24:05;12.50;43.50
13198;DHT22;6664;52.514;13.440;2022-09-23T17:26:35;12.40;44.50
13198;DHT22;6664;52.514;13.440;2022-09-23T17:29:03;12.30;44.90
13198;DHT22;6664;52.514;13.440;2022-09-23T17:31:31;12.20;44.70
13198;DHT22;6664;52.514;13.440;2022-09-23T17:33:58;12.10;46.20
13198;DHT22;6664;52.514;13.440;2022-09-23T17:36:25;11.90;46.20
13198;DHT22;6664;52.514;13.440;2022-09-23T17:38:53;11.80;45.80
13198;DHT22;6664;52.514;13.440;2022-09-23T17:41:20;11.70;46.90
13198;DHT22;6664;52.514;13.440;2022-09-23T17:43:53;11.60;46.80
13198;DHT22;6664;52.514;13.440;2022-09-23T17:46:20;11.50;47.60
13198;DHT22;6664;52.514;13.440;2022-09-23T17:48:48;11.50;47.90
13198;DHT22;6664;52.514;13.440;2022-09-23T17:51:18;11.30;47.90
13198;DHT22;6664;52.514;13.440;2022-09-23T17:53:46;11.30;48.70
13198;DHT22;6664;52.514;13.440;2022-09-23T17:56:18;11.20;49.50
13198;DHT22;6664;52.514;13.440;2022-09-23T17:58:48;11.10;49.20
13198;DHT22;6664;52.514;13.440;2022-09-23T18:01:18;11.00;49.90
13198;DHT22;6664;52.514;13.440;2022-09-23T18:03:53;11.00;50.40
13198;DHT22;6664;52.514;13.440;2022-09-23T18:06:22;11.00;50.40
13198;DHT22;6664;52.514;13.440;2022-09-23T18:08:50;10.90;51.10
13198;DHT22;6664;52.514;13.440;2022-09-23T18:11:20;10.90;51.50
13198;DHT22;6664;52.514;13.440;2022-09-23T18:16:19;10.90;52.40
13198;DHT22;6664;52.514;13.440;2022-09-23T18:18:51;11.10;51.60
13198;DHT22;6664;52.514;13.440;2022-09-23T18:21:19;11.10;50.80
13198;DHT22;6664;52.514;13.440;2022-09-23T18:23:47;11.20;51.40
13198;DHT22;6664;52.514;13.440;2022-09-23T18:26:15;11.30;51.00
13198;DHT22;6664;52.514;13.440;2022-09-23T18:28:45;11.40;51.90